createdAt,value
2018-12-31T00:02:10.519Z,25.00
2018-12-31T00:04:40.739Z,21.10
2018-12-31T00:07:10.993Z,23.07
2018-12-31T00:09:41.034Z,24.90
2018-12-31T00:12:11.092Z,24.30
2018-12-31T00:14:41.036Z,25.47
2018-12-31T00:17:11.451Z,24.57
2018-12-31T00:19:41.326Z,27.20
2018-12-31T00:22:11.269Z,21.87
2018-12-31T00:24:41.245Z,22.10
2018-12-31T00:27:11.621Z,23.10
2018-12-31T00:29:41.537Z,20.73
2018-12-31T00:32:11.513Z,23.10
2018-12-31T00:34:41.548Z,21.87
2018-12-31T00:37:11.533Z,21.90
2018-12-31T00:39:41.522Z,21.50
2018-12-31T00:42:12.328Z,21.00
2018-12-31T00:44:42.218Z,20.80
2018-12-31T00:47:12.170Z,19.87
2018-12-31T00:49:42.215Z,21.77
2018-12-31T00:52:12.158Z,21.47
2018-12-31T00:54:42.114Z,21.47
2018-12-31T00:57:12.123Z,19.23
2018-12-31T00:59:42.053Z,21.90
2018-12-31T01:02:12.162Z,19.53
2018-12-31T01:04:42.309Z,23.50
2018-12-31T01:07:12.279Z,22.80
2018-12-31T01:09:42.529Z,24.80
2018-12-31T01:12:12.595Z,24.20
2018-12-31T01:14:42.574Z,26.80
2018-12-31T01:17:13.012Z,25.03
2018-12-31T01:19:42.978Z,21.60
2018-12-31T01:22:12.938Z,23.33
2018-12-31T01:24:42.989Z,22.00
2018-12-31T01:27:13.034Z,25.83
2018-12-31T01:29:43.066Z,22.70
2018-12-31T01:32:13.025Z,24.80
2018-12-31T01:34:43.321Z,24.13
2018-12-31T01:37:13.397Z,23.67
2018-12-31T01:39:43.885Z,25.03
2018-12-31T01:42:13.921Z,25.00
2018-12-31T01:44:43.960Z,25.43
2018-12-31T01:47:13.973Z,23.40
2018-12-31T01:49:43.933Z,25.03
2018-12-31T01:52:13.907Z,24.70
2018-12-31T01:54:44.384Z,24.77
2018-12-31T01:57:14.400Z,23.33
2018-12-31T01:59:44.281Z,27.23
2018-12-31T02:02:14.243Z,27.00
2018-12-31T02:04:44.234Z,26.53
2018-12-31T02:07:15.383Z,27.50
2018-12-31T02:09:45.337Z,30.17
2018-12-31T02:12:15.296Z,27.30
2018-12-31T02:14:45.660Z,31.00
2018-12-31T02:17:16.250Z,29.97
2018-12-31T02:19:46.205Z,31.20
2018-12-31T02:22:16.533Z,28.50
2018-12-31T02:24:46.629Z,27.87
2018-12-31T02:27:16.572Z,31.53
2018-12-31T02:29:47.043Z,34.23
2018-12-31T02:32:16.940Z,30.20
2018-12-31T02:34:47.338Z,29.30
2018-12-31T02:37:17.204Z,28.90
2018-12-31T02:39:47.183Z,31.30
2018-12-31T02:42:17.073Z,32.57
2018-12-31T02:44:47.000Z,29.97
2018-12-31T02:47:17.271Z,28.60
2018-12-31T02:49:47.345Z,32.00
2018-12-31T02:52:17.315Z,26.90
2018-12-31T02:54:48.312Z,30.43
2018-12-31T02:57:18.257Z,35.87
2018-12-31T02:59:48.262Z,33.73
2018-12-31T03:02:18.219Z,29.30
2018-12-31T03:04:48.109Z,37.23
2018-12-31T03:07:18.152Z,31.10
2018-12-31T03:09:48.089Z,31.93
2018-12-31T03:12:18.052Z,35.00
2018-12-31T03:14:48.036Z,36.77
2018-12-31T03:17:18.453Z,35.90
2018-12-31T03:19:48.482Z,41.10
2018-12-31T03:22:18.421Z,36.00
2018-12-31T03:24:48.305Z,38.47
2018-12-31T03:27:18.256Z,38.70
2018-12-31T03:29:48.264Z,40.40
2018-12-31T03:32:18.223Z,37.40
2018-12-31T03:34:48.281Z,39.83
2018-12-31T03:37:18.292Z,38.13
2018-12-31T03:39:48.286Z,43.70
2018-12-31T03:42:18.303Z,40.20
2018-12-31T03:44:48.318Z,40.47
2018-12-31T03:47:18.359Z,41.40
2018-12-31T03:49:48.735Z,36.03
2018-12-31T03:52:18.630Z,47.33
2018-12-31T03:54:48.672Z,46.03
2018-12-31T03:57:18.777Z,40.73
2018-12-31T03:59:48.745Z,45.00
2018-12-31T04:02:18.638Z,45.23
2018-12-31T04:04:48.641Z,40.77
2018-12-31T04:07:18.916Z,38.67
2018-12-31T04:09:48.802Z,41.30
2018-12-31T04:12:18.756Z,33.87
2018-12-31T04:14:48.806Z,39.43
2018-12-31T04:17:18.864Z,41.17
2018-12-31T04:19:49.345Z,32.53
2018-12-31T04:22:19.603Z,34.13
2018-12-31T04:24:49.905Z,37.57
2018-12-31T04:27:19.980Z,42.53
2018-12-31T04:29:50.016Z,44.63
2018-12-31T04:32:19.963Z,42.07
2018-12-31T04:34:49.998Z,41.37
2018-12-31T04:37:19.963Z,42.10
2018-12-31T04:39:49.930Z,43.23
2018-12-31T04:42:19.896Z,37.20
2018-12-31T04:44:50.268Z,44.57
2018-12-31T04:47:20.153Z,40.40
2018-12-31T04:49:50.209Z,41.33
2018-12-31T04:52:20.240Z,45.90
2018-12-31T04:54:50.146Z,43.43
2018-12-31T04:57:20.002Z,44.57
2018-12-31T04:59:50.037Z,41.70
2018-12-31T05:02:19.892Z,47.80
2018-12-31T05:04:49.791Z,43.93
2018-12-31T05:07:20.242Z,41.43
2018-12-31T05:09:50.237Z,37.43
2018-12-31T05:12:20.213Z,42.57
2018-12-31T05:14:50.682Z,43.40
2018-12-31T05:17:20.645Z,39.90
2018-12-31T05:19:50.617Z,37.20
2018-12-31T05:22:20.676Z,38.97
2018-12-31T05:24:50.620Z,43.47
2018-12-31T05:27:20.599Z,42.30
2018-12-31T05:29:50.793Z,35.83
2018-12-31T05:32:20.776Z,39.63
2018-12-31T05:34:50.720Z,38.20
2018-12-31T05:37:20.602Z,43.17
2018-12-31T05:39:50.843Z,36.40
2018-12-31T05:42:21.293Z,43.23
2018-12-31T05:44:51.309Z,39.57
2018-12-31T05:47:21.326Z,40.03
2018-12-31T05:49:51.381Z,39.33
2018-12-31T05:52:21.342Z,41.17
2018-12-31T05:54:51.205Z,48.33
2018-12-31T05:57:21.162Z,39.07
2018-12-31T05:59:51.205Z,43.40
2018-12-31T06:02:21.525Z,39.07
2018-12-31T06:04:51.563Z,47.27
2018-12-31T06:07:21.804Z,44.17
2018-12-31T06:09:51.681Z,45.77
2018-12-31T06:12:21.599Z,46.80
2018-12-31T06:14:51.819Z,48.97
2018-12-31T06:17:21.803Z,43.97
2018-12-31T06:19:51.738Z,46.30
2018-12-31T06:22:22.005Z,52.30
2018-12-31T06:24:51.895Z,47.03
2018-12-31T06:27:21.817Z,48.20
2018-12-31T06:29:52.063Z,44.90
2018-12-31T06:32:22.021Z,47.30
2018-12-31T06:34:52.028Z,42.57
2018-12-31T06:37:21.968Z,50.57
2018-12-31T06:39:51.827Z,42.70
2018-12-31T06:42:21.716Z,42.77
2018-12-31T06:44:51.585Z,44.33
2018-12-31T06:47:21.558Z,46.10
2018-12-31T06:49:51.489Z,43.73
2018-12-31T06:52:21.365Z,39.40
2018-12-31T06:54:51.303Z,40.23
2018-12-31T06:57:21.228Z,45.50
2018-12-31T06:59:51.288Z,47.93
2018-12-31T07:02:21.165Z,43.07
2018-12-31T07:04:51.107Z,47.77
2018-12-31T07:07:20.981Z,50.47
2018-12-31T07:09:51.301Z,58.33
2018-12-31T07:12:21.246Z,58.17
2018-12-31T07:14:51.125Z,57.67
2018-12-31T07:17:21.520Z,57.80
2018-12-31T07:19:51.466Z,51.57
2018-12-31T07:22:21.482Z,48.23
2018-12-31T07:24:51.631Z,42.63
2018-12-31T07:27:21.931Z,53.17
2018-12-31T07:29:52.359Z,44.10
2018-12-31T07:32:22.377Z,46.20
2018-12-31T07:34:52.475Z,46.57
2018-12-31T07:37:22.604Z,48.77
2018-12-31T07:39:52.829Z,44.53
2018-12-31T07:42:22.821Z,40.73
2018-12-31T07:44:52.766Z,43.20
2018-12-31T07:47:23.346Z,45.87
2018-12-31T07:49:53.435Z,41.60
2018-12-31T07:52:23.420Z,45.70
2018-12-31T07:54:53.365Z,39.90
2018-12-31T07:57:23.473Z,40.60
2018-12-31T07:59:53.441Z,43.57
2018-12-31T08:02:23.506Z,46.13
2018-12-31T08:04:54.178Z,39.50
2018-12-31T08:07:24.213Z,43.40
2018-12-31T08:09:54.143Z,42.50
2018-12-31T08:12:24.164Z,41.20
2018-12-31T08:14:54.593Z,49.65
2018-12-31T08:17:24.701Z,46.17
2018-12-31T08:19:54.872Z,46.60
2018-12-31T08:22:25.345Z,46.70
2018-12-31T08:24:56.391Z,42.53
2018-12-31T08:27:26.329Z,48.00
2018-12-31T08:29:56.202Z,49.47
2018-12-31T08:32:26.664Z,46.47
2018-12-31T08:34:56.549Z,43.00
2018-12-31T08:37:26.455Z,49.70
2018-12-31T08:39:56.422Z,46.90
2018-12-31T08:42:26.344Z,39.97
2018-12-31T08:44:56.248Z,42.90
2018-12-31T08:47:26.282Z,39.47
2018-12-31T08:49:56.525Z,39.83
2018-12-31T08:52:26.467Z,39.90
2018-12-31T08:54:56.497Z,43.10
2018-12-31T08:57:26.465Z,40.73
2018-12-31T08:59:57.200Z,41.00
2018-12-31T09:02:27.143Z,38.03
2018-12-31T09:04:57.065Z,34.87
2018-12-31T09:07:28.335Z,35.17
2018-12-31T09:09:58.188Z,42.03
2018-12-31T09:12:28.473Z,36.80
2018-12-31T09:14:58.433Z,35.60
2018-12-31T09:17:31.090Z,36.40
2018-12-31T09:20:01.208Z,28.47
2018-12-31T09:22:31.227Z,30.57
2018-12-31T09:25:01.258Z,26.83
2018-12-31T09:27:31.061Z,28.53
2018-12-31T09:30:01.156Z,23.57
2018-12-31T09:32:34.827Z,27.67
2018-12-31T09:35:05.488Z,47.47
2018-12-31T09:37:35.496Z,50.70
2018-12-31T09:40:05.642Z,35.07
2018-12-31T09:42:35.762Z,28.70
2018-12-31T09:45:07.201Z,33.20
2018-12-31T09:47:37.251Z,31.60
2018-12-31T09:50:09.160Z,24.40
2018-12-31T09:52:39.829Z,30.57
2018-12-31T09:55:11.415Z,25.20
2018-12-31T09:57:42.153Z,20.17
2018-12-31T10:00:12.820Z,22.57
2018-12-31T10:02:42.893Z,18.87
2018-12-31T10:05:12.830Z,20.77
2018-12-31T10:07:42.689Z,22.43
2018-12-31T10:10:12.744Z,24.43
2018-12-31T10:12:43.055Z,22.97
2018-12-31T10:15:13.069Z,23.07
2018-12-31T10:17:43.479Z,23.97
2018-12-31T10:20:13.406Z,21.23
2018-12-31T10:22:43.740Z,21.70
2018-12-31T10:25:13.680Z,25.13
2018-12-31T10:27:43.792Z,26.90
2018-12-31T10:30:13.656Z,26.00
2018-12-31T10:32:43.924Z,28.63
2018-12-31T10:35:13.996Z,28.00
2018-12-31T10:37:44.051Z,25.97
2018-12-31T10:40:14.458Z,26.83
2018-12-31T10:42:49.832Z,20.40
2018-12-31T10:45:19.908Z,9.80
2018-12-31T10:47:50.140Z,13.53
2018-12-31T10:50:20.993Z,17.30
2018-12-31T10:52:52.546Z,10.00
2018-12-31T10:55:22.937Z,8.30
2018-12-31T10:57:52.913Z,8.83
2018-12-31T11:00:23.079Z,8.37
2018-12-31T11:02:53.252Z,10.23
2018-12-31T11:05:23.303Z,9.33
2018-12-31T11:07:53.520Z,7.60
2018-12-31T11:10:23.720Z,12.97
2018-12-31T11:13:03.011Z,6.20
2018-12-31T11:15:33.615Z,7.67
2018-12-31T11:18:03.761Z,7.37
2018-12-31T11:20:33.770Z,8.97
2018-12-31T11:23:06.781Z,15.63
2018-12-31T11:25:37.828Z,11.80
2018-12-31T11:28:08.069Z,8.03
2018-12-31T11:30:38.863Z,8.37
2018-12-31T11:33:09.402Z,7.90
2018-12-31T11:35:39.535Z,9.47
2018-12-31T11:38:09.630Z,8.80
2018-12-31T11:40:40.164Z,9.20
2018-12-31T11:43:10.300Z,9.07
2018-12-31T11:45:40.367Z,8.47
2018-12-31T11:48:10.319Z,7.37
2018-12-31T11:50:40.275Z,9.10
2018-12-31T11:53:10.234Z,9.03
2018-12-31T11:55:40.125Z,7.50
2018-12-31T11:58:10.351Z,7.20
2018-12-31T12:00:40.397Z,7.93
2018-12-31T12:03:10.644Z,7.23
2018-12-31T12:05:40.715Z,8.57
2018-12-31T12:08:11.004Z,7.87
2018-12-31T12:10:40.892Z,9.47
2018-12-31T12:13:10.775Z,7.60
2018-12-31T12:15:41.025Z,6.90
2018-12-31T12:18:11.339Z,6.27
2018-12-31T12:20:41.263Z,6.77
2018-12-31T12:23:11.470Z,6.43
2018-12-31T12:25:41.685Z,7.67
2018-12-31T12:28:11.727Z,5.10
2018-12-31T12:30:41.678Z,7.97
2018-12-31T12:33:11.614Z,8.03
2018-12-31T12:35:41.714Z,6.73
2018-12-31T12:38:11.833Z,6.07
2018-12-31T12:40:44.078Z,7.50
2018-12-31T12:43:14.171Z,6.90
2018-12-31T12:45:44.139Z,5.50
2018-12-31T12:48:14.019Z,5.43
2018-12-31T12:50:44.294Z,5.40
2018-12-31T12:53:15.198Z,7.37
2018-12-31T12:55:45.572Z,5.70
2018-12-31T12:58:15.709Z,6.10
2018-12-31T13:00:46.265Z,6.60
2018-12-31T13:03:16.886Z,7.80
2018-12-31T13:05:46.806Z,7.47
2018-12-31T13:08:17.593Z,6.37
2018-12-31T13:10:47.533Z,6.60
2018-12-31T13:13:18.176Z,7.80
2018-12-31T13:15:48.033Z,13.60
2018-12-31T13:18:17.920Z,6.90
2018-12-31T13:20:48.075Z,6.93
2018-12-31T13:23:18.006Z,8.70
2018-12-31T13:25:47.871Z,5.67
2018-12-31T13:28:17.749Z,8.13
2018-12-31T13:30:47.651Z,8.57
2018-12-31T13:33:17.824Z,8.27
2018-12-31T13:35:47.693Z,8.97
2018-12-31T13:38:17.572Z,7.40
2018-12-31T13:40:47.505Z,10.00
2018-12-31T13:43:17.457Z,9.40
2018-12-31T13:45:47.404Z,9.40
2018-12-31T13:48:18.212Z,9.10
2018-12-31T13:50:48.381Z,11.50
2018-12-31T13:53:18.467Z,9.67
2018-12-31T13:55:48.383Z,10.40
2018-12-31T13:58:18.262Z,10.03
2018-12-31T14:00:48.207Z,11.13
2018-12-31T14:03:19.681Z,9.83
2018-12-31T14:05:49.649Z,10.00
2018-12-31T14:08:19.919Z,11.57
2018-12-31T14:10:50.062Z,10.23
2018-12-31T14:13:20.345Z,13.03
2018-12-31T14:15:50.657Z,16.00
2018-12-31T14:18:20.885Z,12.10
2018-12-31T14:20:50.757Z,19.77
2018-12-31T14:23:20.697Z,18.80
2018-12-31T14:25:50.641Z,15.63
2018-12-31T14:28:21.099Z,13.20
2018-12-31T14:30:50.971Z,11.07
2018-12-31T14:33:21.169Z,11.57
2018-12-31T14:35:51.112Z,10.80
2018-12-31T14:38:20.991Z,10.43
2018-12-31T14:40:50.887Z,11.50
2018-12-31T14:43:20.956Z,11.33
2018-12-31T14:45:50.917Z,10.60
2018-12-31T14:48:21.247Z,13.30
2018-12-31T14:50:51.247Z,11.87
2018-12-31T14:53:21.129Z,9.80
2018-12-31T14:55:51.077Z,11.50
2018-12-31T14:58:21.048Z,13.23
2018-12-31T15:00:50.991Z,10.40
2018-12-31T15:03:21.096Z,15.10
2018-12-31T15:05:51.124Z,13.80
2018-12-31T15:08:21.769Z,12.17
2018-12-31T15:10:52.006Z,10.13
2018-12-31T15:13:22.596Z,10.67
2018-12-31T15:15:52.549Z,13.17
2018-12-31T15:18:22.625Z,14.20
2018-12-31T15:20:52.654Z,16.37
2018-12-31T15:23:22.584Z,15.43
2018-12-31T15:25:53.107Z,13.63
2018-12-31T15:28:22.965Z,12.50
2018-12-31T15:30:53.075Z,13.17
2018-12-31T15:33:23.054Z,12.20
2018-12-31T15:35:53.001Z,13.80
2018-12-31T15:38:23.162Z,12.47
2018-12-31T15:40:53.277Z,13.53
2018-12-31T15:43:23.927Z,12.40
2018-12-31T15:45:53.905Z,13.87
2018-12-31T15:48:23.845Z,12.80
2018-12-31T15:50:53.994Z,13.00
2018-12-31T15:53:23.913Z,15.77
2018-12-31T15:55:53.873Z,14.73
2018-12-31T15:58:23.723Z,12.97
2018-12-31T16:00:53.687Z,10.70
2018-12-31T16:03:23.924Z,15.10
2018-12-31T16:05:54.653Z,16.27
2018-12-31T16:08:24.686Z,14.30
2018-12-31T16:10:54.584Z,14.97
2018-12-31T16:13:24.868Z,14.13
2018-12-31T16:15:54.998Z,14.67
2018-12-31T16:18:25.265Z,14.70
2018-12-31T16:20:55.251Z,13.27
2018-12-31T16:23:25.233Z,15.63
2018-12-31T16:25:55.619Z,13.90
2018-12-31T16:28:25.742Z,15.63
2018-12-31T16:30:55.631Z,15.10
2018-12-31T16:33:25.546Z,14.60
2018-12-31T16:35:59.086Z,17.00
2018-12-31T16:38:28.961Z,13.80
2018-12-31T16:40:59.256Z,15.07
2018-12-31T16:43:29.200Z,15.60
2018-12-31T16:45:59.117Z,16.03
2018-12-31T16:48:28.997Z,16.43
2018-12-31T16:50:58.905Z,17.03
2018-12-31T16:53:28.951Z,19.00
2018-12-31T16:55:58.856Z,15.83
2018-12-31T16:58:28.751Z,18.93
2018-12-31T17:00:58.670Z,17.67
2018-12-31T17:03:28.686Z,23.57
2018-12-31T17:05:58.683Z,19.00
2018-12-31T17:08:28.766Z,21.00
2018-12-31T17:10:58.653Z,19.23
2018-12-31T17:13:28.627Z,16.30
2018-12-31T17:15:58.638Z,19.57
2018-12-31T17:18:29.224Z,17.40
2018-12-31T17:20:59.260Z,21.83
2018-12-31T17:23:29.154Z,18.80
2018-12-31T17:25:59.293Z,18.60
2018-12-31T17:28:30.175Z,18.13
2018-12-31T17:31:00.632Z,16.47
2018-12-31T17:33:30.630Z,14.33
2018-12-31T17:36:00.919Z,18.90
2018-12-31T17:38:30.796Z,20.20
2018-12-31T17:41:00.886Z,24.80
2018-12-31T17:43:31.322Z,25.37
2018-12-31T17:46:01.353Z,16.60
2018-12-31T17:48:31.732Z,22.93
2018-12-31T17:51:01.894Z,25.33
2018-12-31T17:53:31.995Z,32.70
2018-12-31T17:56:02.581Z,20.70
2018-12-31T17:58:32.470Z,23.10
2018-12-31T18:01:02.482Z,24.93
2018-12-31T18:03:32.954Z,21.73
2018-12-31T18:06:02.952Z,17.77
2018-12-31T18:08:32.873Z,18.63
2018-12-31T18:11:02.907Z,23.87
2018-12-31T18:13:32.893Z,21.50
2018-12-31T18:16:03.476Z,19.70
2018-12-31T18:18:33.457Z,17.47
2018-12-31T18:21:03.835Z,23.63
2018-12-31T18:23:33.791Z,22.97
2018-12-31T18:26:03.876Z,30.37
2018-12-31T18:28:34.030Z,29.50
2018-12-31T18:31:04.280Z,30.87
2018-12-31T18:33:34.641Z,27.30
2018-12-31T18:36:04.585Z,24.30
2018-12-31T18:38:34.927Z,31.03
2018-12-31T18:41:05.484Z,24.97
2018-12-31T18:43:35.462Z,26.10
2018-12-31T18:46:05.497Z,24.90
2018-12-31T18:48:35.499Z,27.70
2018-12-31T18:51:05.745Z,27.50
2018-12-31T18:53:35.709Z,30.13
2018-12-31T18:56:05.647Z,33.33
2018-12-31T18:58:35.595Z,26.77
2018-12-31T19:01:05.611Z,30.00
2018-12-31T19:03:35.817Z,28.50
2018-12-31T19:06:05.889Z,23.77
2018-12-31T19:08:35.959Z,25.27
2018-12-31T19:11:06.147Z,23.77
2018-12-31T19:13:36.082Z,26.93
2018-12-31T19:16:06.087Z,27.20
2018-12-31T19:18:36.147Z,33.00
2018-12-31T19:21:06.246Z,30.83
2018-12-31T19:23:36.613Z,25.40
2018-12-31T19:26:07.100Z,23.23
2018-12-31T19:28:37.486Z,26.93
2018-12-31T19:31:07.415Z,35.73
2018-12-31T19:33:37.558Z,27.57
2018-12-31T19:36:09.317Z,27.37
2018-12-31T19:38:39.239Z,30.00
2018-12-31T19:41:09.232Z,32.53
2018-12-31T19:43:39.285Z,28.83
2018-12-31T19:46:09.412Z,27.37
2018-12-31T19:48:39.609Z,27.73
2018-12-31T19:51:09.692Z,32.80
2018-12-31T19:53:39.679Z,32.73
2018-12-31T19:56:10.132Z,29.20
2018-12-31T19:58:40.045Z,34.53
2018-12-31T20:01:10.059Z,37.07
2018-12-31T20:03:39.885Z,34.43
2018-12-31T20:06:09.878Z,39.73
2018-12-31T20:08:39.744Z,37.07
2018-12-31T20:11:09.641Z,35.60
2018-12-31T20:13:39.902Z,29.53
2018-12-31T20:16:10.201Z,32.17
2018-12-31T20:18:40.188Z,33.43
2018-12-31T20:21:10.141Z,39.63
2018-12-31T20:23:40.017Z,36.47
2018-12-31T20:26:10.879Z,39.00
2018-12-31T20:28:40.745Z,33.60
2018-12-31T20:31:11.034Z,42.00
2018-12-31T20:33:41.426Z,33.40
2018-12-31T20:36:11.671Z,36.10
2018-12-31T20:38:42.341Z,30.83
2018-12-31T20:41:12.860Z,39.33
2018-12-31T20:43:42.827Z,41.43
2018-12-31T20:46:12.737Z,47.40
2018-12-31T20:48:43.167Z,40.57
2018-12-31T20:51:13.677Z,32.67
2018-12-31T20:53:44.193Z,35.07
2018-12-31T20:56:14.729Z,37.57
2018-12-31T20:58:44.677Z,37.73
2018-12-31T21:01:14.585Z,39.30
2018-12-31T21:03:44.860Z,38.63
2018-12-31T21:06:14.780Z,32.17
2018-12-31T21:08:44.734Z,33.10
2018-12-31T21:11:14.717Z,41.93
2018-12-31T21:13:44.991Z,34.80
2018-12-31T21:16:15.136Z,41.90
2018-12-31T21:18:45.020Z,37.40
2018-12-31T21:21:16.666Z,43.40
2018-12-31T21:23:46.675Z,38.43
2018-12-31T21:26:16.608Z,43.90
2018-12-31T21:28:46.983Z,37.13
2018-12-31T21:31:16.999Z,35.33
2018-12-31T21:33:47.730Z,40.50
2018-12-31T21:36:17.583Z,36.43
2018-12-31T21:38:48.051Z,31.03
2018-12-31T21:41:18.044Z,38.70
2018-12-31T21:43:47.950Z,31.67
2018-12-31T21:46:18.037Z,42.77
2018-12-31T21:48:47.952Z,39.10
2018-12-31T21:51:18.294Z,34.73
2018-12-31T21:53:48.467Z,33.97
2018-12-31T21:56:20.135Z,35.40
2018-12-31T21:58:51.842Z,28.77
2018-12-31T22:01:21.939Z,29.67
2018-12-31T22:03:52.113Z,30.70
2018-12-31T22:06:22.091Z,35.30
2018-12-31T22:08:52.085Z,29.80
2018-12-31T22:11:21.971Z,28.10
2018-12-31T22:13:51.988Z,32.87
2018-12-31T22:16:21.949Z,38.93
2018-12-31T22:18:51.922Z,32.80
2018-12-31T22:21:22.201Z,27.60
2018-12-31T22:23:52.093Z,28.33
2018-12-31T22:26:21.969Z,29.87
2018-12-31T22:28:52.051Z,27.70
2018-12-31T22:31:22.310Z,25.43
2018-12-31T22:33:52.316Z,31.97
2018-12-31T22:36:22.206Z,28.80
2018-12-31T22:38:52.980Z,28.83
2018-12-31T22:41:22.918Z,29.53
2018-12-31T22:43:53.054Z,27.87
2018-12-31T22:46:22.961Z,28.93
2018-12-31T22:48:53.264Z,25.93
2018-12-31T22:51:23.644Z,32.20
2018-12-31T22:53:53.751Z,32.57
2018-12-31T22:56:24.329Z,35.90
2018-12-31T22:58:54.204Z,29.03
2018-12-31T23:01:24.112Z,34.13
2018-12-31T23:03:54.129Z,26.60
2018-12-31T23:06:23.995Z,30.73
2018-12-31T23:08:54.257Z,28.50
2018-12-31T23:11:24.711Z,33.67
2018-12-31T23:13:54.983Z,27.30
2018-12-31T23:16:26.482Z,25.37
2018-12-31T23:18:56.372Z,29.03
2018-12-31T23:21:26.550Z,27.40
2018-12-31T23:23:56.513Z,30.33
2018-12-31T23:26:26.468Z,31.17
2018-12-31T23:28:56.479Z,27.40
2018-12-31T23:31:26.502Z,30.63
2018-12-31T23:33:57.430Z,27.10
2018-12-31T23:36:27.368Z,30.23
2018-12-31T23:39:05.053Z,33.07
2018-12-31T23:41:28.864Z,33.80
2018-12-31T23:43:59.134Z,26.50
2018-12-31T23:46:29.036Z,34.03
2018-12-31T23:48:58.910Z,30.30
2018-12-31T23:51:28.846Z,29.37
2018-12-31T23:53:59.905Z,30.07
2018-12-31T23:56:29.935Z,29.10
2018-12-31T23:59:01.131Z,29.10
